createdAt,value
2022-09-16T00:02:39.369Z,16.21
2022-09-16T00:05:26.378Z,16.11
2022-09-16T00:08:12.596Z,16.45
2022-09-16T00:11:02.348Z,16.04
2022-09-16T00:13:48.627Z,16.76
2022-09-16T00:16:34.912Z,16.81
2022-09-16T00:19:20.729Z,16.37
2022-09-16T00:22:07.224Z,16.50
2022-09-16T00:24:53.161Z,15.97
2022-09-16T00:27:39.150Z,16.70
2022-09-16T00:30:25.188Z,16.78
2022-09-16T00:33:11.337Z,15.80
2022-09-16T00:36:07.016Z,15.99
2022-09-16T00:38:55.243Z,15.96
2022-09-16T00:41:41.058Z,15.92
2022-09-16T00:44:46.349Z,15.96
2022-09-16T00:47:36.376Z,15.48
2022-09-16T00:50:38.351Z,15.38
2022-09-16T00:53:44.587Z,15.29
2022-09-16T00:56:31.611Z,15.32
2022-09-16T00:59:22.423Z,15.23
2022-09-16T01:02:12.865Z,15.12
2022-09-16T01:05:05.730Z,15.26
2022-09-16T01:07:52.842Z,15.22
2022-09-16T01:10:41.352Z,15.16
2022-09-16T01:13:27.970Z,15.42
2022-09-16T01:16:32.682Z,15.33
2022-09-16T01:19:26.391Z,15.45
2022-09-16T01:22:32.030Z,15.28
2022-09-16T01:25:18.379Z,15.45
2022-09-16T01:28:12.158Z,14.95
2022-09-16T01:31:01.403Z,14.91
2022-09-16T01:33:54.045Z,14.78
2022-09-16T01:36:59.207Z,14.92
2022-09-16T01:39:48.328Z,14.84
2022-09-16T01:42:51.981Z,14.86
2022-09-16T01:45:46.634Z,14.96
2022-09-16T01:48:53.866Z,15.09
2022-09-16T01:51:51.364Z,15.02
2022-09-16T01:54:53.699Z,14.99
2022-09-16T01:57:42.626Z,15.73
2022-09-16T02:00:31.651Z,15.48
2022-09-16T02:03:27.857Z,15.67
2022-09-16T02:06:17.827Z,15.56
2022-09-16T02:09:08.567Z,15.46
2022-09-16T02:11:55.277Z,15.84
2022-09-16T02:14:45.352Z,15.21
2022-09-16T02:17:33.649Z,15.29
2022-09-16T02:20:25.337Z,15.59
2022-09-16T02:23:16.666Z,15.65
2022-09-16T02:26:04.506Z,15.93
2022-09-16T02:28:53.863Z,16.50
2022-09-16T02:31:41.693Z,16.48
2022-09-16T02:34:32.794Z,16.28
2022-09-16T02:37:23.717Z,16.18
2022-09-16T02:40:17.880Z,16.27
2022-09-16T02:43:05.480Z,16.76
2022-09-16T02:46:11.626Z,15.63
2022-09-16T02:49:19.207Z,15.57
2022-09-16T02:52:14.951Z,15.76
2022-09-16T02:55:11.680Z,16.49
2022-09-16T02:57:58.177Z,15.45
2022-09-16T03:00:52.132Z,15.09
2022-09-16T03:03:38.805Z,15.41
2022-09-16T03:06:25.817Z,15.41
2022-09-16T03:09:13.656Z,15.37
2022-09-16T03:12:03.899Z,15.83
2022-09-16T03:15:12.693Z,16.24
2022-09-16T03:18:15.353Z,16.51
2022-09-16T03:21:11.225Z,16.69
2022-09-16T03:24:14.769Z,16.42
2022-09-16T03:27:03.861Z,16.48
2022-09-16T03:29:54.122Z,16.54
2022-09-16T03:32:44.935Z,16.86
2022-09-16T03:35:41.059Z,16.85
2022-09-16T03:38:29.224Z,16.63
2022-09-16T03:41:15.555Z,17.07
2022-09-16T03:44:04.366Z,17.17
2022-09-16T03:46:50.899Z,17.53
2022-09-16T03:49:43.360Z,17.01
2022-09-16T03:52:32.200Z,15.93
2022-09-16T03:55:19.134Z,16.47
2022-09-16T03:58:05.343Z,15.92
2022-09-16T04:00:52.216Z,16.77
2022-09-16T04:03:38.487Z,16.60
2022-09-16T04:06:26.614Z,14.92
2022-09-16T04:09:15.607Z,15.34
2022-09-16T04:12:04.584Z,16.24
2022-09-16T04:14:56.829Z,16.41
2022-09-16T04:17:42.931Z,15.46
2022-09-16T04:20:29.354Z,16.25
2022-09-16T04:23:15.451Z,15.89
2022-09-16T04:26:02.851Z,16.02
2022-09-16T04:28:48.992Z,16.92
2022-09-16T04:31:36.400Z,16.56
2022-09-16T04:34:24.875Z,16.42
2022-09-16T04:37:12.411Z,17.14
2022-09-16T04:40:03.658Z,17.14
2022-09-16T04:42:52.758Z,17.32
2022-09-16T04:45:40.673Z,17.66
2022-09-16T04:48:27.953Z,17.53
2022-09-16T04:51:20.962Z,17.11
2022-09-16T04:54:09.717Z,16.75
2022-09-16T04:57:04.841Z,16.77
2022-09-16T04:59:53.740Z,16.97
2022-09-16T05:02:40.927Z,17.23
2022-09-16T05:05:29.179Z,17.42
2022-09-16T05:08:15.311Z,17.33
2022-09-16T05:11:05.578Z,17.15
2022-09-16T05:13:53.234Z,17.15
2022-09-16T05:16:40.601Z,17.15
2022-09-16T05:19:27.133Z,17.65
2022-09-16T05:22:14.145Z,17.53
2022-09-16T05:25:01.816Z,17.89
2022-09-16T05:27:48.355Z,17.85
2022-09-16T05:30:36.732Z,17.75
2022-09-16T05:33:23.765Z,18.01
2022-09-16T05:36:12.053Z,17.68
2022-09-16T05:39:21.619Z,17.85
2022-09-16T05:42:06.761Z,18.02
2022-09-16T05:44:53.269Z,17.53
2022-09-16T05:47:40.753Z,16.80
2022-09-16T05:50:28.692Z,16.75
2022-09-16T05:53:16.169Z,17.02
2022-09-16T05:56:06.418Z,16.40
2022-09-16T05:58:53.738Z,15.79
2022-09-16T06:01:39.886Z,15.61
2022-09-16T06:04:27.714Z,15.98
2022-09-16T06:07:15.002Z,16.10
2022-09-16T06:10:02.214Z,16.12
2022-09-16T06:12:50.878Z,16.42
2022-09-16T06:15:37.313Z,16.87
2022-09-16T06:18:24.458Z,16.85
2022-09-16T06:21:12.923Z,17.43
2022-09-16T06:24:00.512Z,16.83
2022-09-16T06:26:50.816Z,16.23
2022-09-16T06:32:33.631Z,15.18
2022-09-16T06:35:22.691Z,14.78
2022-09-16T06:38:10.135Z,15.52
2022-09-16T06:41:04.639Z,15.45
2022-09-16T06:43:52.723Z,15.22
2022-09-16T06:46:48.746Z,15.07
2022-09-16T06:49:36.711Z,15.08
2022-09-16T06:52:25.348Z,15.56
2022-09-16T06:55:15.470Z,15.99
2022-09-16T06:58:03.844Z,15.68
2022-09-16T07:00:51.731Z,15.30
2022-09-16T07:03:50.706Z,15.48
2022-09-16T07:07:08.276Z,16.00
2022-09-16T07:09:44.174Z,16.29
2022-09-16T07:12:31.997Z,16.13
2022-09-16T07:15:17.976Z,16.45
2022-09-16T07:18:12.862Z,17.01
2022-09-16T07:21:08.743Z,16.45
2022-09-16T07:23:58.708Z,17.37
2022-09-16T07:26:45.899Z,16.06
2022-09-16T07:29:33.094Z,16.99
2022-09-16T07:32:22.640Z,15.81
2022-09-16T07:35:10.341Z,15.58
2022-09-16T07:37:57.134Z,15.56
2022-09-16T07:40:45.366Z,16.06
2022-09-16T07:43:32.282Z,15.88
2022-09-16T07:46:23.882Z,16.22
2022-09-16T07:49:12.634Z,16.01
2022-09-16T07:52:00.757Z,15.68
2022-09-16T07:54:48.884Z,15.82
2022-09-16T07:57:37.395Z,16.26
2022-09-16T08:00:27.039Z,16.08
2022-09-16T08:03:17.731Z,15.85
2022-09-16T08:06:09.666Z,15.95
2022-09-16T08:08:59.823Z,16.17
2022-09-16T08:11:56.512Z,15.57
2022-09-16T08:14:44.877Z,15.53
2022-09-16T08:17:33.498Z,15.91
2022-09-16T08:20:22.276Z,15.90
2022-09-16T08:23:14.413Z,15.91
2022-09-16T08:26:01.844Z,15.74
2022-09-16T08:29:08.995Z,16.12
2022-09-16T08:31:56.684Z,15.74
2022-09-16T08:34:44.168Z,15.83
2022-09-16T08:37:32.883Z,16.19
2022-09-16T08:40:24.987Z,16.56
2022-09-16T08:43:15.258Z,16.32
2022-09-16T08:46:03.677Z,16.15
2022-09-16T08:48:58.597Z,16.22
2022-09-16T08:51:48.741Z,16.48
2022-09-16T08:54:39.995Z,16.47
2022-09-16T08:57:26.951Z,16.50
2022-09-16T09:00:14.907Z,16.75
2022-09-16T09:03:01.455Z,15.45
2022-09-16T09:05:51.405Z,16.08
2022-09-16T09:08:57.122Z,15.69
2022-09-16T09:12:02.743Z,15.56
2022-09-16T09:15:07.112Z,15.65
2022-09-16T09:18:30.022Z,15.25
2022-09-16T09:21:22.421Z,15.39
2022-09-16T09:24:26.973Z,15.31
2022-09-16T09:27:16.843Z,16.01
2022-09-16T09:30:13.651Z,15.72
2022-09-16T09:33:34.282Z,15.69
2022-09-16T09:36:32.766Z,16.29
2022-09-16T09:39:26.124Z,16.67
2022-09-16T09:42:34.684Z,15.90
2022-09-16T09:45:24.729Z,16.88
2022-09-16T09:48:20.478Z,16.04
2022-09-16T09:51:13.983Z,15.94
2022-09-16T09:54:10.910Z,16.60
2022-09-16T09:57:03.283Z,17.23
2022-09-16T09:59:58.780Z,16.90
2022-09-16T10:02:49.753Z,17.19
2022-09-16T10:05:40.787Z,16.62
2022-09-16T10:08:41.485Z,17.30
2022-09-16T10:11:38.745Z,17.63
2022-09-16T10:14:33.199Z,17.99
2022-09-16T10:17:27.784Z,17.20
2022-09-16T10:20:29.965Z,18.14
2022-09-16T10:23:26.351Z,18.35
2022-09-16T10:26:27.948Z,18.67
2022-09-16T10:29:18.122Z,18.61
2022-09-16T10:32:09.952Z,18.37
2022-09-16T10:34:58.884Z,18.17
2022-09-16T10:37:52.976Z,18.00
2022-09-16T10:40:54.877Z,18.18
2022-09-16T10:43:49.703Z,17.88
2022-09-16T10:46:38.666Z,17.74
2022-09-16T10:49:48.721Z,17.82
2022-09-16T10:52:44.825Z,18.58
2022-09-16T10:55:36.650Z,17.91
2022-09-16T10:58:24.778Z,18.35
2022-09-16T11:01:23.281Z,17.75
2022-09-16T11:04:33.204Z,18.32
2022-09-16T11:07:46.728Z,17.49
2022-09-16T11:10:45.383Z,18.11
2022-09-16T11:13:47.662Z,17.59
2022-09-16T11:17:12.730Z,17.79
2022-09-16T11:20:06.715Z,18.39
2022-09-16T11:23:20.271Z,18.29
2022-09-16T11:26:46.020Z,18.73
2022-09-16T11:29:49.727Z,19.27
2022-09-16T11:32:52.010Z,18.73
2022-09-16T11:36:01.813Z,19.72
2022-09-16T11:39:06.926Z,19.35
2022-09-16T11:42:07.740Z,19.67
2022-09-16T11:45:22.909Z,20.56
2022-09-16T11:48:28.878Z,18.83
2022-09-16T11:51:31.958Z,18.90
2022-09-16T11:54:47.949Z,19.33
2022-09-16T11:57:44.452Z,20.14
2022-09-16T12:00:32.908Z,19.31
2022-09-16T12:03:36.239Z,19.85
2022-09-16T12:06:25.739Z,19.24
2022-09-16T12:09:26.852Z,18.78
2022-09-16T12:12:24.879Z,19.13
2022-09-16T12:15:23.812Z,20.04
2022-09-16T12:18:17.941Z,19.60
2022-09-16T12:21:12.771Z,19.83
2022-09-16T12:24:06.905Z,19.63
2022-09-16T12:27:05.846Z,19.34
2022-09-16T12:30:02.323Z,19.00
2022-09-16T12:33:03.751Z,18.77
2022-09-16T12:36:13.785Z,18.84
2022-09-16T12:42:06.744Z,19.77
2022-09-16T12:48:24.161Z,18.20
2022-09-16T12:51:10.944Z,19.26
2022-09-16T12:54:16.815Z,18.80
2022-09-16T12:57:09.946Z,18.54
2022-09-16T13:03:21.816Z,18.72
2022-09-16T13:06:29.691Z,19.10
2022-09-16T13:09:27.412Z,18.24
2022-09-16T13:12:41.517Z,19.51
2022-09-16T13:15:36.969Z,19.64
2022-09-16T13:18:29.026Z,18.45
2022-09-16T13:21:29.903Z,19.08
2022-09-16T13:24:38.825Z,19.47
2022-09-16T13:27:30.746Z,18.77
2022-09-16T13:30:31.449Z,19.01
2022-09-16T13:33:33.853Z,18.76
2022-09-16T13:36:30.709Z,18.84
2022-09-16T13:39:32.103Z,18.43
2022-09-16T13:42:25.677Z,19.32
2022-09-16T13:45:41.352Z,19.07
2022-09-16T13:48:28.188Z,18.66
2022-09-16T13:51:22.050Z,18.90
2022-09-16T13:54:48.021Z,19.53
2022-09-16T13:57:53.730Z,18.50
2022-09-16T14:01:00.925Z,18.39
2022-09-16T14:03:54.809Z,18.71
2022-09-16T14:06:50.200Z,18.66
2022-09-16T14:09:51.497Z,18.92
2022-09-16T14:13:01.132Z,18.32
2022-09-16T14:15:58.289Z,18.60
2022-09-16T14:19:07.821Z,19.08
2022-09-16T14:25:06.029Z,18.63
2022-09-16T14:28:20.754Z,18.34
2022-09-16T14:31:12.742Z,18.25
2022-09-16T14:34:02.036Z,18.57
2022-09-16T14:36:48.120Z,17.71
2022-09-16T14:39:43.733Z,18.07
2022-09-16T14:42:38.030Z,18.29
2022-09-16T14:45:30.746Z,19.10
2022-09-16T14:48:28.057Z,18.42
2022-09-16T14:51:26.043Z,18.05
2022-09-16T14:57:19.431Z,17.95
2022-09-16T15:00:12.093Z,18.58
2022-09-16T15:03:07.027Z,18.92
2022-09-16T15:05:55.932Z,17.90
2022-09-16T15:09:00.199Z,18.18
2022-09-16T15:11:56.961Z,17.52
2022-09-16T15:14:47.003Z,18.07
2022-09-16T15:17:42.768Z,17.28
2022-09-16T15:20:38.916Z,17.95
2022-09-16T15:23:30.321Z,17.80
2022-09-16T15:26:25.184Z,17.31
2022-09-16T15:29:39.724Z,16.99
2022-09-16T15:32:31.986Z,17.36
2022-09-16T15:35:25.798Z,17.39
2022-09-16T15:38:20.416Z,17.49
2022-09-16T15:41:18.007Z,17.69
2022-09-16T15:44:23.873Z,17.28
2022-09-16T15:47:25.717Z,17.53
2022-09-16T15:50:21.748Z,16.46
2022-09-16T15:53:24.734Z,16.58
2022-09-16T15:56:28.021Z,16.97
2022-09-16T15:59:32.766Z,16.20
2022-09-16T16:02:21.171Z,16.95
2022-09-16T16:05:15.594Z,16.95
2022-09-16T16:14:06.067Z,17.14
2022-09-16T16:23:09.448Z,16.56
2022-09-16T16:26:13.785Z,16.26
2022-09-16T16:29:13.594Z,16.27
2022-09-16T16:32:02.251Z,17.04
2022-09-16T16:34:59.095Z,16.88
2022-09-16T16:40:56.986Z,18.05
2022-09-16T16:43:55.787Z,18.49
2022-09-16T16:46:55.944Z,18.35
2022-09-16T16:49:52.796Z,18.37
2022-09-16T16:52:58.170Z,18.92
2022-09-16T16:55:47.375Z,19.00
2022-09-16T16:58:47.746Z,17.61
2022-09-16T17:01:48.430Z,18.57
2022-09-16T17:04:43.376Z,18.71
2022-09-16T17:07:41.761Z,19.12
2022-09-16T17:10:38.199Z,17.86
2022-09-16T17:13:36.994Z,18.60
2022-09-16T17:16:36.793Z,19.00
2022-09-16T17:19:28.601Z,18.99
2022-09-16T17:22:16.566Z,18.91
2022-09-16T17:28:08.116Z,19.00
2022-09-16T17:31:12.969Z,17.68
2022-09-16T17:34:15.322Z,17.59
2022-09-16T17:37:04.342Z,17.82
2022-09-16T17:40:01.969Z,17.82
2022-09-16T17:42:59.623Z,18.21
2022-09-16T17:46:03.999Z,17.39
2022-09-16T17:49:11.875Z,17.71
2022-09-16T17:52:04.727Z,15.86
2022-09-16T17:54:51.786Z,16.81
2022-09-16T17:57:46.798Z,16.61
2022-09-16T18:00:35.156Z,16.26
2022-09-16T18:03:32.990Z,16.82
2022-09-16T18:06:39.801Z,16.30
2022-09-16T18:09:43.354Z,17.59
2022-09-16T18:12:49.827Z,18.05
2022-09-16T18:15:49.888Z,18.07
2022-09-16T18:18:43.408Z,18.10
2022-09-16T18:24:44.770Z,17.24
2022-09-16T18:27:44.370Z,16.91
2022-09-16T18:30:47.940Z,17.60
2022-09-16T18:37:01.782Z,17.58
2022-09-16T18:39:55.104Z,17.91
2022-09-16T18:43:01.166Z,18.24
2022-09-16T18:45:52.813Z,18.13
2022-09-16T18:48:56.556Z,18.15
2022-09-16T18:58:03.741Z,18.19
2022-09-16T19:00:53.992Z,17.22
2022-09-16T19:03:57.765Z,17.30
2022-09-16T19:07:01.830Z,17.71
2022-09-16T19:09:52.058Z,18.09
2022-09-16T19:12:52.848Z,18.16
2022-09-16T19:15:58.757Z,18.24
2022-09-16T19:18:52.174Z,17.48
2022-09-16T19:24:38.537Z,16.22
2022-09-16T19:27:34.945Z,16.32
2022-09-16T19:30:39.997Z,16.52
2022-09-16T19:33:30.866Z,15.52
2022-09-16T19:39:43.768Z,16.49
2022-09-16T19:42:33.374Z,16.35
2022-09-16T19:45:41.290Z,15.71
2022-09-16T19:48:41.499Z,16.77
2022-09-16T19:51:35.004Z,16.36
2022-09-16T19:54:32.706Z,16.99
2022-09-16T19:57:24.048Z,16.40
2022-09-16T20:00:41.287Z,15.73
2022-09-16T20:03:35.040Z,16.73
2022-09-16T20:06:38.041Z,15.66
2022-09-16T20:09:41.999Z,16.50
2022-09-16T20:12:31.417Z,16.66
2022-09-16T20:15:22.346Z,16.43
2022-09-16T20:18:10.880Z,16.90
2022-09-16T20:21:03.081Z,16.22
2022-09-16T20:23:55.758Z,15.96
2022-09-16T20:26:54.766Z,15.49
2022-09-16T20:29:41.774Z,16.63
2022-09-16T20:32:35.683Z,15.16
2022-09-16T20:35:29.739Z,15.74
2022-09-16T20:38:26.128Z,15.68
2022-09-16T20:41:21.884Z,15.44
2022-09-16T20:44:16.740Z,14.80
2022-09-16T20:47:09.733Z,14.81
2022-09-16T20:49:56.053Z,14.67
2022-09-16T20:52:43.928Z,14.72
2022-09-16T20:55:42.003Z,14.58
2022-09-16T20:58:31.995Z,14.22
2022-09-16T21:01:26.762Z,14.14
2022-09-16T21:04:16.960Z,14.10
2022-09-16T21:07:14.718Z,14.67
2022-09-16T21:10:03.724Z,14.18
2022-09-16T21:12:51.175Z,14.45
2022-09-16T21:15:38.719Z,14.37
2022-09-16T21:18:28.013Z,13.89
2022-09-16T21:21:22.713Z,13.93
2022-09-16T21:24:10.822Z,13.88
2022-09-16T21:26:58.441Z,13.74
2022-09-16T21:29:50.614Z,13.81
2022-09-16T21:32:37.023Z,14.12
2022-09-16T21:35:23.222Z,13.71
2022-09-16T21:38:10.991Z,13.51
2022-09-16T21:41:01.690Z,13.76
2022-09-16T21:43:49.927Z,13.71
2022-09-16T21:46:41.934Z,13.46
2022-09-16T21:49:30.760Z,13.66
2022-09-16T21:52:20.289Z,13.57
2022-09-16T21:55:07.778Z,14.07
2022-09-16T21:57:54.400Z,13.99
2022-09-16T22:00:41.133Z,13.91
2022-09-16T22:03:27.267Z,14.20
2022-09-16T22:06:14.217Z,13.86
2022-09-16T22:09:01.661Z,13.69
2022-09-16T22:11:49.238Z,13.36
2022-09-16T22:14:35.333Z,13.33
2022-09-16T22:17:21.839Z,13.26
2022-09-16T22:20:08.890Z,13.22
2022-09-16T22:22:56.435Z,13.29
2022-09-16T22:25:42.392Z,13.37
2022-09-16T22:28:28.890Z,13.19
2022-09-16T22:31:18.752Z,13.39
2022-09-16T22:34:06.792Z,13.12
2022-09-16T22:36:53.654Z,13.42
2022-09-16T22:39:40.152Z,13.12
2022-09-16T22:42:27.035Z,13.22
2022-09-16T22:45:13.106Z,13.25
2022-09-16T22:47:59.876Z,13.38
2022-09-16T22:50:54.441Z,13.17
2022-09-16T22:53:40.887Z,13.20
2022-09-16T22:56:29.755Z,13.41
2022-09-16T22:59:17.590Z,13.22
2022-09-16T23:02:04.360Z,13.31
2022-09-16T23:04:51.039Z,13.26
2022-09-16T23:07:39.043Z,13.32
2022-09-16T23:10:44.260Z,13.40
2022-09-16T23:13:31.667Z,13.68
2022-09-16T23:16:21.574Z,13.26
2022-09-16T23:19:08.706Z,12.95
2022-09-16T23:21:54.968Z,12.72
2022-09-16T23:24:42.031Z,12.84
2022-09-16T23:27:27.951Z,12.84
2022-09-16T23:30:13.942Z,13.13
2022-09-16T23:33:00.791Z,13.39
2022-09-16T23:35:50.277Z,12.68
2022-09-16T23:38:38.253Z,12.67
2022-09-16T23:41:27.562Z,12.98
2022-09-16T23:44:14.976Z,12.98
2022-09-16T23:47:01.378Z,12.73
2022-09-16T23:49:48.239Z,12.93
2022-09-16T23:52:34.520Z,12.83
2022-09-16T23:55:20.933Z,12.73
2022-09-16T23:58:07.064Z,12.96
